Bookmark and Share
Track history (hours):
 

St Solene

Last reported at 2014-Apr-24 19:32 UTC. Time now 2014-Apr-24 20:00 UTC.
Position N 43°00' E 007°25'.

Length 104 m; draft 5 m.

Type: Tanker. MMSI: 226302000.

NotesDate/timePositionNaut miles runAvg speedWind from/ knotsBaromVisibWave heightAir tempDewpointWater temp
2014-Apr-24 19:32N 43°00' E 007°25'1212.6
2014-Apr-24 18:33N 43°01' E 007°42'1212.5
2014-Apr-24 17:33N 43°02' E 007°59'1312.5
2014-Apr-24 16:33N 43°03' E 008°16'1512.1
2014-Apr-24 15:18N 43°04' E 008°37'911.7
2014-Apr-24 14:33N 43°05' E 008°49'1212.0
2014-Apr-24 13:33N 43°06' E 009°05'1312.4
2014-Apr-24 12:33N 43°07' E 009°22'1212.0
2014-Apr-24 11:33N 42°59' E 009°35'1413.6
2014-Apr-24 10:33N 42°45' E 009°35'1312.5
2014-Apr-24 09:32N 42°33' E 009°33'30 1.0
2014-Apr-23 03:33N 43°03' E 009°38'1312.9
2014-Apr-23 02:34N 43°09' E 009°23'1313.1
2014-Apr-23 01:33N 43°09' E 009°05'10513.1
2014-Apr-22 17:29N 42°54' E 006°42'1112.0
2014-Apr-22 16:34N 42°52' E 006°27'1211.8
2014-Apr-22 15:33N 42°50' E 006°11'1211.8
2014-Apr-22 14:33N 42°49' E 005°56'1110.7
2014-Apr-22 13:33N 42°51' E 005°41'1111.5
2014-Apr-22 12:33N 42°58' E 005°29'1612.0
2014-Apr-22 11:13N 43°07' E 005°10'812.4
2014-Apr-22 10:33N 43°12' E 005°01'1212.1
2014-Apr-22 09:33N 43°23' E 004°56'3 2.7
2014-Apr-22 08:33N 43°26' E 004°54'0 0.0
2014-Apr-22 07:33N 43°26' E 004°54'0 0.0
2014-Apr-22 06:33N 43°26' E 004°54'0 0.0
2014-Apr-22 05:33N 43°26' E 004°54'0 0.0
2014-Apr-22 04:33N 43°26' E 004°54'0 0.0
2014-Apr-22 03:34N 43°26' E 004°54'0 0.0
2014-Apr-22 02:33N 43°26' E 004°54'0 0.0
2014-Apr-22 01:33N 43°26' E 004°54'0 0.0
2014-Apr-22 00:33N 43°26' E 004°54'0 0.0
2014-Apr-21 23:33N 43°26' E 004°54'0 0.0
2014-Apr-21 22:34N 43°26' E 004°54'0 0.0
2014-Apr-21 21:33N 43°26' E 004°54'0 0.0
2014-Apr-21 20:33N 43°26' E 004°54'0 0.0
2014-Apr-21 19:33N 43°26' E 004°54'4 4.5
2014-Apr-21 18:33N 43°24' E 004°59'0 0.2
2014-Apr-21 17:28N 43°24' E 004°60'0 0.0
2014-Apr-21 16:31N 43°24' E 004°60'0 0.0
2014-Apr-21 15:31N 43°24' E 004°60'0 0.0
2014-Apr-21 14:31N 43°24' E 004°60'0 0.0
2014-Apr-21 13:31N 43°24' E 004°60'0 0.0
2014-Apr-21 12:31N 43°24' E 004°60'0 0.0
2014-Apr-21 11:31N 43°24' E 004°60'0 0.0
2014-Apr-21 10:28N 43°24' E 004°60'0 0.0
2014-Apr-21 09:31N 43°24' E 004°60'0 0.0
2014-Apr-21 08:31N 43°24' E 004°60'0 0.0
2014-Apr-21 07:31N 43°24' E 004°60'0 0.0
2014-Apr-21 06:31N 43°24' E 004°60'0 0.0
2014-Apr-21 05:31N 43°24' E 004°60'0 0.0
2014-Apr-21 04:31N 43°24' E 004°60'0 0.0
2014-Apr-21 03:31N 43°24' E 004°60'0 0.0
2014-Apr-21 02:31N 43°24' E 004°60'0 0.0
2014-Apr-21 01:31N 43°24' E 004°60'0 0.0
2014-Apr-21 00:31N 43°24' E 004°60'0 0.0
2014-Apr-20 23:31N 43°24' E 004°60'0 0.0
2014-Apr-20 22:31N 43°24' E 004°60'0 0.0
2014-Apr-20 21:31N 43°24' E 004°60'0 0.0
2014-Apr-20 20:28N 43°24' E 004°60'0 0.0
2014-Apr-20 19:31N 43°24' E 004°60'0 0.0
2014-Apr-20 18:31N 43°24' E 004°60'0 0.0
2014-Apr-20 17:31N 43°24' E 004°60'0 0.0
2014-Apr-20 16:31N 43°24' E 004°60'0 0.0
2014-Apr-20 15:31N 43°24' E 004°60'0 0.0
2014-Apr-20 14:31N 43°24' E 004°60'0 0.0
2014-Apr-20 13:31N 43°24' E 004°60'0 0.0
2014-Apr-20 12:31N 43°24' E 004°60'0 0.0
2014-Apr-20 11:31N 43°24' E 004°60'0 0.0
2014-Apr-20 10:31N 43°24' E 004°60'0 0.0
2014-Apr-20 09:31N 43°24' E 004°60'0 0.1
2014-Apr-20 08:33N 43°24' E 004°60'1 1.3
2014-Apr-20 07:33N 43°24' E 004°58'0 0.0
2014-Apr-20 06:33N 43°23' E 004°58'0 0.1
2014-Apr-20 05:33N 43°23' E 004°58'0 0.0
2014-Apr-20 04:33N 43°23' E 004°58'0 0.0
2014-Apr-20 03:33N 43°23' E 004°58'0 0.0
2014-Apr-20 02:33N 43°23' E 004°58'0 0.0
2014-Apr-20 01:33N 43°23' E 004°58'0 0.0
2014-Apr-20 00:33N 43°23' E 004°58'0 0.0
2014-Apr-19 23:33N 43°23' E 004°58'0 0.0
2014-Apr-19 22:33N 43°23' E 004°58'0 0.0
2014-Apr-19 21:33N 43°23' E 004°58'0 0.1
2014-Apr-19 20:33N 43°23' E 004°58'0 0.0
2014-Apr-19 19:33N 43°23' E 004°58'0 0.0
2014-Apr-19 18:33N 43°23' E 004°58'0 0.0
2014-Apr-19 17:33N 43°23' E 004°58'0 0.0
2014-Apr-19 16:33N 43°23' E 004°58'0 0.0
2014-Apr-19 15:33N 43°23' E 004°58'0 0.0
2014-Apr-19 14:33N 43°23' E 004°58'0 0.0
2014-Apr-19 13:33N 43°23' E 004°58'0 0.0
2014-Apr-19 12:34N 43°23' E 004°58'0 0.0
2014-Apr-19 11:33N 43°23' E 004°58'0 0.0
2014-Apr-19 10:33N 43°23' E 004°58'0 0.0
2014-Apr-19 09:33N 43°23' E 004°58'0 0.0
2014-Apr-19 08:33N 43°23' E 004°58'0 0.0
2014-Apr-19 07:33N 43°23' E 004°58'0 0.0
2014-Apr-19 06:33N 43°23' E 004°58'0 0.0
2014-Apr-19 05:33N 43°23' E 004°58'2 2.4
2014-Apr-19 04:34N 43°21' E 004°59'10 9.9
2014-Apr-19 03:33N 43°12' E 005°03'9 7.6
2014-Apr-19 02:26N 43°08' E 005°14'8 7.5
2014-Apr-19 01:22N 43°03' E 005°23'8 9.3
2014-Apr-19 00:33N 42°60' E 005°32'9 9.3
2014-Apr-18 23:33N 42°55' E 005°43'10 9.6
2014-Apr-18 22:33N 42°50' E 005°54'10 9.8
2014-Apr-18 21:33N 42°45' E 006°06'10 9.9
2014-Apr-18 20:33N 42°40' E 006°17'10 9.8
2014-Apr-18 19:33N 42°36' E 006°29'10 9.8
2014-Apr-18 18:33N 42°31' E 006°40'10 9.5
2014-Apr-18 17:33N 42°26' E 006°52'11 8.8
2014-Apr-18 16:18N 42°20' E 007°04'35 0.7
2014-Apr-16 16:06N 42°35' E 006°21'5 9.8
2014-Apr-16 15:34N 42°38' E 006°15'1010.0
2014-Apr-16 14:34N 42°42' E 006°03'1010.0
2014-Apr-16 13:33N 42°47' E 005°51'8 8.1
2014-Apr-16 12:34N 42°51' E 005°41'8 7.9
2014-Apr-16 11:34N 42°55' E 005°32'9 9.2
2014-Apr-16 10:33N 42°59' E 005°21'171121.7
2014-Apr-16 09:09N 43°06' E 001°27'156256.7
2014-Apr-16 08:32N 43°12' E 005°01'1111.0
2014-Apr-16 07:34N 43°23' E 004°57'4 3.8
2014-Apr-16 06:33N 43°26' E 004°54'0 0.0
2014-Apr-16 05:28N 43°26' E 004°54'0 0.0
2014-Apr-16 04:31N 43°26' E 004°54'0 0.0
2014-Apr-16 03:31N 43°26' E 004°54'0 0.0
2014-Apr-16 02:31N 43°26' E 004°54'0 0.0
2014-Apr-16 01:28N 43°26' E 004°54'0 0.0
2014-Apr-16 00:31N 43°26' E 004°54'0 0.0
2014-Apr-15 23:31N 43°26' E 004°54'0 0.0
2014-Apr-15 22:31N 43°26' E 004°54'0 0.0
2014-Apr-15 21:31N 43°26' E 004°54'0 0.0
2014-Apr-15 20:31N 43°26' E 004°54'0 0.0
2014-Apr-15 19:25N 43°26' E 004°54'0 0.0
2014-Apr-15 18:31N 43°26' E 004°54'0 0.0
2014-Apr-15 17:31N 43°26' E 004°54'0 0.0
2014-Apr-15 16:28N 43°26' E 004°54'0 0.0
2014-Apr-15 15:28N 43°26' E 004°54'0 0.0
2014-Apr-15 14:31N 43°26' E 004°54'0 0.0
2014-Apr-15 10:31N 43°26' E 004°54'0 0.0
2014-Apr-15 09:31N 43°26' E 004°54'0 0.0
2014-Apr-15 08:31N 43°26' E 004°54'0 0.0
2014-Apr-15 03:31N 43°26' E 004°54'0 0.0
2014-Apr-15 02:32N 43°26' E 004°54'0 0.0
2014-Apr-15 01:31N 43°26' E 004°54'0 0.0
2014-Apr-15 00:34N 43°26' E 004°54'0 0.0
2014-Apr-14 23:34N 43°26' E 004°54'1 1.3
2014-Apr-14 22:34N 43°24' E 004°53'5 4.7
2014-Apr-14 21:34N 43°24' E 004°60'0 0.0
2014-Apr-14 20:34N 43°24' E 004°60'0 0.0
2014-Apr-14 19:34N 43°24' E 004°60'  

Dump ship's entire track history

sailing weather and tide predictions

St Solene — FVDG — position and weather